Terminal Aerodrome Forecast
Issued by NWS Sioux Falls, SD

Home | Current Version | Previous Version | Text Only | Print | Product List | Glossary Off
Versions: 1 2 3 4 5 6 7 8 9 10 11 12 13 14

000
FTUS43 KFSD 191132
TAFSUX
TAF
KSUX 191132Z 1912/2012 10005KT P6SM SCT200
     FM192000 17013KT P6SM FEW250
     FM200400 17012KT P6SM SCT250 WS020/20045KT
     FM200700 16009KT P6SM SCT200 WS020/23035KT
     FM200900 15006KT P6SM BKN200=

USA.gov is the U.S. government's official web portal to all federal, state and local government web resources and services.